sensor_id;sensor_type;location;lat;lon;timestamp;temperature;humidity
8557;DHT22;4316;53.840;10.762;2022-07-29T00:01:33;14.60;99.90
8557;DHT22;4316;53.840;10.762;2022-07-29T00:03:59;14.50;99.90
8557;DHT22;4316;53.840;10.762;2022-07-29T00:06:24;14.50;99.90
8557;DHT22;4316;53.840;10.762;2022-07-29T00:08:50;14.40;99.90
8557;DHT22;4316;53.840;10.762;2022-07-29T00:11:15;14.40;99.90
8557;DHT22;4316;53.840;10.762;2022-07-29T00:13:41;14.40;99.90
8557;DHT22;4316;53.840;10.762;2022-07-29T00:16:07;14.30;99.90
8557;DHT22;4316;53.840;10.762;2022-07-29T00:18:32;14.30;99.90
8557;DHT22;4316;53.840;10.762;2022-07-29T00:20:58;14.30;99.90
8557;DHT22;4316;53.840;10.762;2022-07-29T00:23:23;14.20;99.90
8557;DHT22;4316;53.840;10.762;2022-07-29T00:25:49;14.20;99.90
8557;DHT22;4316;53.840;10.762;2022-07-29T00:28:14;14.20;99.90
8557;DHT22;4316;53.840;10.762;2022-07-29T00:30:40;14.20;99.90
8557;DHT22;4316;53.840;10.762;2022-07-29T00:33:08;14.20;99.90
8557;DHT22;4316;53.840;10.762;2022-07-29T00:35:35;14.10;99.90
8557;DHT22;4316;53.840;10.762;2022-07-29T00:38:15;14.10;99.90
8557;DHT22;4316;53.840;10.762;2022-07-29T00:40:41;14.10;99.90
8557;DHT22;4316;53.840;10.762;2022-07-29T00:43:07;14.00;99.90
8557;DHT22;4316;53.840;10.762;2022-07-29T00:45:33;14.00;99.90
8557;DHT22;4316;53.840;10.762;2022-07-29T00:47:59;13.90;99.90
8557;DHT22;4316;53.840;10.762;2022-07-29T00:50:25;13.90;99.90
8557;DHT22;4316;53.840;10.762;2022-07-29T00:52:52;13.90;99.90
8557;DHT22;4316;53.840;10.762;2022-07-29T00:55:18;13.80;99.90
8557;DHT22;4316;53.840;10.762;2022-07-29T00:57:45;13.80;99.90
8557;DHT22;4316;53.840;10.762;2022-07-29T01:00:14;13.70;99.90
8557;DHT22;4316;53.840;10.762;2022-07-29T01:02:40;13.70;99.90
8557;DHT22;4316;53.840;10.762;2022-07-29T01:05:06;13.70;99.90
8557;DHT22;4316;53.840;10.762;2022-07-29T01:07:34;13.60;99.90
8557;DHT22;4316;53.840;10.762;2022-07-29T01:10:02;13.70;99.90
8557;DHT22;4316;53.840;10.762;2022-07-29T01:12:30;13.70;99.90
8557;DHT22;4316;53.840;10.762;2022-07-29T01:14:59;13.70;99.90
8557;DHT22;4316;53.840;10.762;2022-07-29T01:22:37;13.70;99.90
8557;DHT22;4316;53.840;10.762;2022-07-29T01:28:17;13.70;99.90
8557;DHT22;4316;53.840;10.762;2022-07-29T01:30:50;13.60;99.90
8557;DHT22;4316;53.840;10.762;2022-07-29T01:33:17;13.50;99.90
8557;DHT22;4316;53.840;10.762;2022-07-29T01:36:10;13.60;99.90
8557;DHT22;4316;53.840;10.762;2022-07-29T01:38:39;13.40;99.90
8557;DHT22;4316;53.840;10.762;2022-07-29T01:41:09;13.40;99.90
8557;DHT22;4316;53.840;10.762;2022-07-29T01:43:51;13.40;99.90
8557;DHT22;4316;53.840;10.762;2022-07-29T01:46:25;13.40;99.90
8557;DHT22;4316;53.840;10.762;2022-07-29T01:48:56;13.40;99.90
8557;DHT22;4316;53.840;10.762;2022-07-29T01:51:32;13.40;99.90
8557;DHT22;4316;53.840;10.762;2022-07-29T01:54:13;13.30;99.90
8557;DHT22;4316;53.840;10.762;2022-07-29T01:56:40;13.30;99.90
8557;DHT22;4316;53.840;10.762;2022-07-29T01:59:08;13.30;99.90
8557;DHT22;4316;53.840;10.762;2022-07-29T02:01:36;13.20;99.90
8557;DHT22;4316;53.840;10.762;2022-07-29T02:04:03;13.20;99.90
8557;DHT22;4316;53.840;10.762;2022-07-29T02:06:30;13.20;99.90
8557;DHT22;4316;53.840;10.762;2022-07-29T02:08:58;13.20;99.90
8557;DHT22;4316;53.840;10.762;2022-07-29T02:11:24;13.20;99.90
8557;DHT22;4316;53.840;10.762;2022-07-29T02:13:52;13.10;99.90
8557;DHT22;4316;53.840;10.762;2022-07-29T02:16:21;13.10;99.90
8557;DHT22;4316;53.840;10.762;2022-07-29T02:18:49;13.20;99.90
8557;DHT22;4316;53.840;10.762;2022-07-29T02:21:20;13.20;99.90
8557;DHT22;4316;53.840;10.762;2022-07-29T02:23:47;13.20;99.90
8557;DHT22;4316;53.840;10.762;2022-07-29T02:26:14;13.20;99.90
8557;DHT22;4316;53.840;10.762;2022-07-29T02:28:42;13.10;99.90
8557;DHT22;4316;53.840;10.762;2022-07-29T02:31:09;13.00;99.90
8557;DHT22;4316;53.840;10.762;2022-07-29T02:33:35;13.10;99.90
8557;DHT22;4316;53.840;10.762;2022-07-29T02:36:02;13.10;99.90
8557;DHT22;4316;53.840;10.762;2022-07-29T02:38:28;13.10;99.90
8557;DHT22;4316;53.840;10.762;2022-07-29T02:41:16;13.10;99.90
8557;DHT22;4316;53.840;10.762;2022-07-29T02:43:43;13.10;99.90
8557;DHT22;4316;53.840;10.762;2022-07-29T02:46:14;13.10;99.90
8557;DHT22;4316;53.840;10.762;2022-07-29T02:48:49;13.00;99.90
8557;DHT22;4316;53.840;10.762;2022-07-29T02:51:21;13.00;99.90
8557;DHT22;4316;53.840;10.762;2022-07-29T02:53:51;13.00;99.90
8557;DHT22;4316;53.840;10.762;2022-07-29T02:56:25;12.90;99.90
8557;DHT22;4316;53.840;10.762;2022-07-29T02:58:55;13.00;99.90
8557;DHT22;4316;53.840;10.762;2022-07-29T03:01:26;12.90;99.90
8557;DHT22;4316;53.840;10.762;2022-07-29T03:03:54;12.90;99.90
8557;DHT22;4316;53.840;10.762;2022-07-29T03:06:22;12.90;99.90
8557;DHT22;4316;53.840;10.762;2022-07-29T03:08:48;12.90;99.90
8557;DHT22;4316;53.840;10.762;2022-07-29T03:11:15;12.90;99.90
8557;DHT22;4316;53.840;10.762;2022-07-29T03:13:42;12.90;99.90
8557;DHT22;4316;53.840;10.762;2022-07-29T03:16:08;12.90;99.90
8557;DHT22;4316;53.840;10.762;2022-07-29T03:18:35;12.90;99.90
8557;DHT22;4316;53.840;10.762;2022-07-29T03:21:02;13.00;99.90
8557;DHT22;4316;53.840;10.762;2022-07-29T03:23:27;12.90;99.90
8557;DHT22;4316;53.840;10.762;2022-07-29T03:25:54;12.90;99.90
8557;DHT22;4316;53.840;10.762;2022-07-29T03:28:20;13.00;99.90
8557;DHT22;4316;53.840;10.762;2022-07-29T03:30:46;13.00;99.90
8557;DHT22;4316;53.840;10.762;2022-07-29T03:33:11;12.90;99.90
8557;DHT22;4316;53.840;10.762;2022-07-29T03:35:37;12.90;99.90
8557;DHT22;4316;53.840;10.762;2022-07-29T03:38:03;12.90;99.90
8557;DHT22;4316;53.840;10.762;2022-07-29T03:40:35;12.90;99.90
8557;DHT22;4316;53.840;10.762;2022-07-29T03:43:03;12.90;99.90
8557;DHT22;4316;53.840;10.762;2022-07-29T03:45:32;12.90;99.90
8557;DHT22;4316;53.840;10.762;2022-07-29T03:48:07;12.80;99.90
8557;DHT22;4316;53.840;10.762;2022-07-29T03:50:33;12.80;99.90
8557;DHT22;4316;53.840;10.762;2022-07-29T03:53:00;12.80;99.90
8557;DHT22;4316;53.840;10.762;2022-07-29T03:55:28;12.90;99.90
8557;DHT22;4316;53.840;10.762;2022-07-29T03:57:56;12.90;99.90
8557;DHT22;4316;53.840;10.762;2022-07-29T04:00:24;13.00;99.90
8557;DHT22;4316;53.840;10.762;2022-07-29T04:02:49;12.90;99.90
8557;DHT22;4316;53.840;10.762;2022-07-29T04:05:17;12.90;99.90
8557;DHT22;4316;53.840;10.762;2022-07-29T04:07:47;13.00;99.90
8557;DHT22;4316;53.840;10.762;2022-07-29T04:10:13;13.00;99.90
8557;DHT22;4316;53.840;10.762;2022-07-29T04:12:40;12.90;99.90
8557;DHT22;4316;53.840;10.762;2022-07-29T04:15:06;13.00;99.90
8557;DHT22;4316;53.840;10.762;2022-07-29T04:17:32;13.00;99.90
8557;DHT22;4316;53.840;10.762;2022-07-29T04:19:58;13.00;99.90
8557;DHT22;4316;53.840;10.762;2022-07-29T04:22:23;13.00;99.90
8557;DHT22;4316;53.840;10.762;2022-07-29T04:24:49;13.10;99.90
8557;DHT22;4316;53.840;10.762;2022-07-29T04:27:14;13.00;99.90
8557;DHT22;4316;53.840;10.762;2022-07-29T04:29:40;13.00;99.90
8557;DHT22;4316;53.840;10.762;2022-07-29T04:32:05;13.00;99.90
8557;DHT22;4316;53.840;10.762;2022-07-29T04:34:31;13.10;99.90
8557;DHT22;4316;53.840;10.762;2022-07-29T04:36:57;13.10;99.90
8557;DHT22;4316;53.840;10.762;2022-07-29T04:39:23;13.20;99.90
8557;DHT22;4316;53.840;10.762;2022-07-29T04:41:49;13.20;99.90
8557;DHT22;4316;53.840;10.762;2022-07-29T04:44:15;13.20;99.90
8557;DHT22;4316;53.840;10.762;2022-07-29T04:46:40;13.20;99.90
8557;DHT22;4316;53.840;10.762;2022-07-29T04:49:06;13.30;99.90
8557;DHT22;4316;53.840;10.762;2022-07-29T04:51:32;13.40;99.90
8557;DHT22;4316;53.840;10.762;2022-07-29T04:53:57;13.40;99.90
8557;DHT22;4316;53.840;10.762;2022-07-29T04:56:23;13.40;99.90
8557;DHT22;4316;53.840;10.762;2022-07-29T04:58:48;13.50;99.90
8557;DHT22;4316;53.840;10.762;2022-07-29T05:01:14;13.60;99.90
8557;DHT22;4316;53.840;10.762;2022-07-29T05:03:40;13.50;99.90
8557;DHT22;4316;53.840;10.762;2022-07-29T05:06:05;13.50;99.90
8557;DHT22;4316;53.840;10.762;2022-07-29T05:08:31;13.40;99.90
8557;DHT22;4316;53.840;10.762;2022-07-29T05:10:56;13.60;99.90
8557;DHT22;4316;53.840;10.762;2022-07-29T05:13:22;13.60;99.90
8557;DHT22;4316;53.840;10.762;2022-07-29T05:15:48;13.70;99.90
8557;DHT22;4316;53.840;10.762;2022-07-29T05:18:13;13.70;99.90
8557;DHT22;4316;53.840;10.762;2022-07-29T05:20:39;13.80;99.90
8557;DHT22;4316;53.840;10.762;2022-07-29T05:23:04;13.80;99.90
8557;DHT22;4316;53.840;10.762;2022-07-29T05:25:30;13.90;99.90
8557;DHT22;4316;53.840;10.762;2022-07-29T05:27:56;14.00;99.90
8557;DHT22;4316;53.840;10.762;2022-07-29T05:30:22;14.00;99.90
8557;DHT22;4316;53.840;10.762;2022-07-29T05:32:48;14.10;99.90
8557;DHT22;4316;53.840;10.762;2022-07-29T05:35:14;14.20;99.90
8557;DHT22;4316;53.840;10.762;2022-07-29T05:37:41;14.20;99.90
8557;DHT22;4316;53.840;10.762;2022-07-29T05:40:08;14.30;99.90
8557;DHT22;4316;53.840;10.762;2022-07-29T05:42:35;14.30;99.90
8557;DHT22;4316;53.840;10.762;2022-07-29T05:45:01;14.40;99.90
8557;DHT22;4316;53.840;10.762;2022-07-29T05:47:27;14.40;99.90
8557;DHT22;4316;53.840;10.762;2022-07-29T05:49:52;14.50;99.90
8557;DHT22;4316;53.840;10.762;2022-07-29T05:52:19;14.60;99.90
8557;DHT22;4316;53.840;10.762;2022-07-29T05:54:45;14.70;99.90
8557;DHT22;4316;53.840;10.762;2022-07-29T05:57:22;14.80;99.90
8557;DHT22;4316;53.840;10.762;2022-07-29T05:59:48;15.00;99.90
8557;DHT22;4316;53.840;10.762;2022-07-29T06:02:15;15.10;99.90
8557;DHT22;4316;53.840;10.762;2022-07-29T06:04:41;15.30;99.90
8557;DHT22;4316;53.840;10.762;2022-07-29T06:07:07;15.50;99.90
8557;DHT22;4316;53.840;10.762;2022-07-29T06:09:33;15.70;99.90
8557;DHT22;4316;53.840;10.762;2022-07-29T06:11:59;15.80;99.90
8557;DHT22;4316;53.840;10.762;2022-07-29T06:14:25;16.00;99.90
8557;DHT22;4316;53.840;10.762;2022-07-29T06:16:52;16.10;99.90
8557;DHT22;4316;53.840;10.762;2022-07-29T06:19:18;16.20;99.90
8557;DHT22;4316;53.840;10.762;2022-07-29T06:21:44;16.40;99.90
8557;DHT22;4316;53.840;10.762;2022-07-29T06:24:11;16.80;99.90
8557;DHT22;4316;53.840;10.762;2022-07-29T06:26:38;17.00;99.90
8557;DHT22;4316;53.840;10.762;2022-07-29T06:29:03;17.20;99.90
8557;DHT22;4316;53.840;10.762;2022-07-29T06:31:29;17.40;99.90
8557;DHT22;4316;53.840;10.762;2022-07-29T06:33:54;17.60;99.90
8557;DHT22;4316;53.840;10.762;2022-07-29T06:36:20;17.80;99.90
8557;DHT22;4316;53.840;10.762;2022-07-29T06:38:46;17.80;99.90
8557;DHT22;4316;53.840;10.762;2022-07-29T06:41:11;18.00;99.90
8557;DHT22;4316;53.840;10.762;2022-07-29T06:43:42;18.10;99.90
8557;DHT22;4316;53.840;10.762;2022-07-29T06:46:13;18.10;99.90
8557;DHT22;4316;53.840;10.762;2022-07-29T06:48:39;18.10;99.90
8557;DHT22;4316;53.840;10.762;2022-07-29T06:51:06;18.10;99.90
8557;DHT22;4316;53.840;10.762;2022-07-29T06:53:32;18.00;99.90
8557;DHT22;4316;53.840;10.762;2022-07-29T06:55:59;18.10;99.90
8557;DHT22;4316;53.840;10.762;2022-07-29T06:58:26;18.20;99.90
8557;DHT22;4316;53.840;10.762;2022-07-29T07:00:56;18.30;99.90
8557;DHT22;4316;53.840;10.762;2022-07-29T07:03:21;18.40;99.90
8557;DHT22;4316;53.840;10.762;2022-07-29T07:05:47;18.50;99.90
8557;DHT22;4316;53.840;10.762;2022-07-29T07:08:13;18.60;99.90
8557;DHT22;4316;53.840;10.762;2022-07-29T07:10:39;18.60;99.90
8557;DHT22;4316;53.840;10.762;2022-07-29T07:13:05;18.50;99.90
8557;DHT22;4316;53.840;10.762;2022-07-29T07:15:32;18.50;99.90
8557;DHT22;4316;53.840;10.762;2022-07-29T07:17:57;18.70;99.90
8557;DHT22;4316;53.840;10.762;2022-07-29T07:20:24;18.70;99.90
8557;DHT22;4316;53.840;10.762;2022-07-29T07:22:49;18.80;99.90
8557;DHT22;4316;53.840;10.762;2022-07-29T07:25:15;18.90;99.90
8557;DHT22;4316;53.840;10.762;2022-07-29T07:27:43;19.00;99.90
8557;DHT22;4316;53.840;10.762;2022-07-29T07:30:09;19.10;99.90
8557;DHT22;4316;53.840;10.762;2022-07-29T07:32:35;19.30;99.90
8557;DHT22;4316;53.840;10.762;2022-07-29T07:35:01;19.50;99.90
8557;DHT22;4316;53.840;10.762;2022-07-29T07:37:27;19.80;99.90
8557;DHT22;4316;53.840;10.762;2022-07-29T07:39:53;20.10;99.90
8557;DHT22;4316;53.840;10.762;2022-07-29T07:42:19;20.20;99.90
8557;DHT22;4316;53.840;10.762;2022-07-29T07:44:45;20.20;99.90
8557;DHT22;4316;53.840;10.762;2022-07-29T07:47:11;20.40;99.90
8557;DHT22;4316;53.840;10.762;2022-07-29T07:49:37;20.60;99.90
8557;DHT22;4316;53.840;10.762;2022-07-29T07:52:03;20.80;99.90
8557;DHT22;4316;53.840;10.762;2022-07-29T07:54:29;21.10;99.50
8557;DHT22;4316;53.840;10.762;2022-07-29T07:56:55;21.10;99.60
8557;DHT22;4316;53.840;10.762;2022-07-29T07:59:20;21.30;99.30
8557;DHT22;4316;53.840;10.762;2022-07-29T08:01:46;21.60;99.10
8557;DHT22;4316;53.840;10.762;2022-07-29T08:04:11;21.90;98.40
8557;DHT22;4316;53.840;10.762;2022-07-29T08:06:37;22.40;98.60
8557;DHT22;4316;53.840;10.762;2022-07-29T08:09:04;22.60;97.80
8557;DHT22;4316;53.840;10.762;2022-07-29T08:11:30;22.70;97.80
8557;DHT22;4316;53.840;10.762;2022-07-29T08:13:55;22.50;97.70
8557;DHT22;4316;53.840;10.762;2022-07-29T08:16:21;22.40;97.90
8557;DHT22;4316;53.840;10.762;2022-07-29T08:18:47;22.50;97.90
8557;DHT22;4316;53.840;10.762;2022-07-29T08:21:14;22.50;97.70
8557;DHT22;4316;53.840;10.762;2022-07-29T08:23:40;22.50;97.70
8557;DHT22;4316;53.840;10.762;2022-07-29T08:26:12;22.50;97.50
8557;DHT22;4316;53.840;10.762;2022-07-29T08:28:40;22.30;97.60
8557;DHT22;4316;53.840;10.762;2022-07-29T08:31:06;22.30;97.70
8557;DHT22;4316;53.840;10.762;2022-07-29T08:33:32;22.40;97.50
8557;DHT22;4316;53.840;10.762;2022-07-29T08:35:58;22.40;97.30
8557;DHT22;4316;53.840;10.762;2022-07-29T08:38:23;22.70;97.30
8557;DHT22;4316;53.840;10.762;2022-07-29T08:40:52;22.90;97.20
8557;DHT22;4316;53.840;10.762;2022-07-29T08:43:18;22.70;96.90
8557;DHT22;4316;53.840;10.762;2022-07-29T08:45:49;22.80;96.80
8557;DHT22;4316;53.840;10.762;2022-07-29T08:48:17;23.30;96.90
8557;DHT22;4316;53.840;10.762;2022-07-29T08:50:44;23.90;96.40
8557;DHT22;4316;53.840;10.762;2022-07-29T08:53:12;24.40;95.70
8557;DHT22;4316;53.840;10.762;2022-07-29T08:55:49;24.80;95.70
8557;DHT22;4316;53.840;10.762;2022-07-29T08:58:16;25.10;94.90
8557;DHT22;4316;53.840;10.762;2022-07-29T09:00:46;25.30;94.80
8557;DHT22;4316;53.840;10.762;2022-07-29T09:03:18;25.20;94.10
8557;DHT22;4316;53.840;10.762;2022-07-29T09:05:47;25.40;94.20
8557;DHT22;4316;53.840;10.762;2022-07-29T09:08:14;25.80;93.90
8557;DHT22;4316;53.840;10.762;2022-07-29T09:10:40;25.90;93.50
8557;DHT22;4316;53.840;10.762;2022-07-29T09:13:06;25.40;93.50
8557;DHT22;4316;53.840;10.762;2022-07-29T09:15:31;25.60;93.60
8557;DHT22;4316;53.840;10.762;2022-07-29T09:17:57;26.00;93.90
8557;DHT22;4316;53.840;10.762;2022-07-29T09:20:25;25.80;93.30
8557;DHT22;4316;53.840;10.762;2022-07-29T09:22:52;26.00;93.60
8557;DHT22;4316;53.840;10.762;2022-07-29T09:25:38;25.60;93.90
8557;DHT22;4316;53.840;10.762;2022-07-29T09:28:15;25.60;93.20
8557;DHT22;4316;53.840;10.762;2022-07-29T09:30:54;25.30;93.60
8557;DHT22;4316;53.840;10.762;2022-07-29T09:33:22;25.80;93.80
8557;DHT22;4316;53.840;10.762;2022-07-29T09:36:08;26.30;92.80
8557;DHT22;4316;53.840;10.762;2022-07-29T09:38:35;26.10;92.50
8557;DHT22;4316;53.840;10.762;2022-07-29T09:41:04;26.00;92.80
8557;DHT22;4316;53.840;10.762;2022-07-29T09:43:30;26.40;93.00
8557;DHT22;4316;53.840;10.762;2022-07-29T09:46:09;26.50;92.40
8557;DHT22;4316;53.840;10.762;2022-07-29T09:48:35;26.30;92.50
8557;DHT22;4316;53.840;10.762;2022-07-29T09:51:01;26.80;92.60
8557;DHT22;4316;53.840;10.762;2022-07-29T09:53:37;27.00;92.30
8557;DHT22;4316;53.840;10.762;2022-07-29T09:56:04;27.00;92.00
8557;DHT22;4316;53.840;10.762;2022-07-29T09:58:30;27.00;91.70
8557;DHT22;4316;53.840;10.762;2022-07-29T10:00:59;27.10;92.00
8557;DHT22;4316;53.840;10.762;2022-07-29T10:03:24;26.90;92.30
8557;DHT22;4316;53.840;10.762;2022-07-29T10:06:11;26.90;92.50
8557;DHT22;4316;53.840;10.762;2022-07-29T10:08:39;26.80;92.30
8557;DHT22;4316;53.840;10.762;2022-07-29T10:11:16;26.60;93.00
8557;DHT22;4316;53.840;10.762;2022-07-29T10:13:44;26.70;93.10
8557;DHT22;4316;53.840;10.762;2022-07-29T10:16:11;26.70;93.20
8557;DHT22;4316;53.840;10.762;2022-07-29T10:18:39;26.70;93.50
8557;DHT22;4316;53.840;10.762;2022-07-29T10:21:05;26.80;93.30
8557;DHT22;4316;53.840;10.762;2022-07-29T10:23:31;26.90;93.20
8557;DHT22;4316;53.840;10.762;2022-07-29T10:25:57;27.30;93.20
8557;DHT22;4316;53.840;10.762;2022-07-29T10:28:23;27.80;92.70
8557;DHT22;4316;53.840;10.762;2022-07-29T10:30:59;27.50;92.60
8557;DHT22;4316;53.840;10.762;2022-07-29T10:33:39;27.70;92.20
8557;DHT22;4316;53.840;10.762;2022-07-29T10:36:32;27.60;92.60
8557;DHT22;4316;53.840;10.762;2022-07-29T10:42:17;27.90;92.20
8557;DHT22;4316;53.840;10.762;2022-07-29T10:44:43;27.90;92.30
8557;DHT22;4316;53.840;10.762;2022-07-29T10:47:26;28.10;92.50
8557;DHT22;4316;53.840;10.762;2022-07-29T10:49:59;28.00;92.40
8557;DHT22;4316;53.840;10.762;2022-07-29T10:52:40;27.40;92.50
8557;DHT22;4316;53.840;10.762;2022-07-29T10:55:30;27.80;92.60
8557;DHT22;4316;53.840;10.762;2022-07-29T10:58:13;28.20;92.30
8557;DHT22;4316;53.840;10.762;2022-07-29T11:00:39;28.10;92.50
8557;DHT22;4316;53.840;10.762;2022-07-29T11:03:05;28.40;92.30
8557;DHT22;4316;53.840;10.762;2022-07-29T11:05:54;28.40;92.50
8557;DHT22;4316;53.840;10.762;2022-07-29T11:08:21;27.80;92.90
8557;DHT22;4316;53.840;10.762;2022-07-29T11:10:50;27.50;93.10
8557;DHT22;4316;53.840;10.762;2022-07-29T11:13:51;27.30;93.40
8557;DHT22;4316;53.840;10.762;2022-07-29T11:16:19;27.10;93.50
8557;DHT22;4316;53.840;10.762;2022-07-29T11:21:39;26.80;93.90
8557;DHT22;4316;53.840;10.762;2022-07-29T11:24:28;26.80;93.90
8557;DHT22;4316;53.840;10.762;2022-07-29T11:27:07;27.10;93.90
8557;DHT22;4316;53.840;10.762;2022-07-29T11:29:39;27.10;93.80
8557;DHT22;4316;53.840;10.762;2022-07-29T11:32:13;27.00;93.50
8557;DHT22;4316;53.840;10.762;2022-07-29T11:34:46;26.70;93.70
8557;DHT22;4316;53.840;10.762;2022-07-29T11:47:38;26.60;94.20
8557;DHT22;4316;53.840;10.762;2022-07-29T11:50:12;26.30;94.60
8557;DHT22;4316;53.840;10.762;2022-07-29T11:52:42;26.10;95.00
8557;DHT22;4316;53.840;10.762;2022-07-29T11:55:10;26.00;95.30
8557;DHT22;4316;53.840;10.762;2022-07-29T11:57:44;25.90;95.30
8557;DHT22;4316;53.840;10.762;2022-07-29T12:00:10;25.80;95.50
8557;DHT22;4316;53.840;10.762;2022-07-29T12:02:43;25.80;95.80
8557;DHT22;4316;53.840;10.762;2022-07-29T12:05:10;25.60;95.60
8557;DHT22;4316;53.840;10.762;2022-07-29T12:07:39;25.50;95.90
8557;DHT22;4316;53.840;10.762;2022-07-29T12:10:06;25.50;96.10
8557;DHT22;4316;53.840;10.762;2022-07-29T12:12:33;25.60;96.00
8557;DHT22;4316;53.840;10.762;2022-07-29T12:15:14;25.50;96.10
8557;DHT22;4316;53.840;10.762;2022-07-29T12:17:40;25.50;96.50
8557;DHT22;4316;53.840;10.762;2022-07-29T12:20:07;25.30;96.70
8557;DHT22;4316;53.840;10.762;2022-07-29T12:22:36;25.20;96.80
8557;DHT22;4316;53.840;10.762;2022-07-29T12:25:04;25.20;97.10
8557;DHT22;4316;53.840;10.762;2022-07-29T12:27:31;25.00;97.00
8557;DHT22;4316;53.840;10.762;2022-07-29T12:30:09;24.90;96.80
8557;DHT22;4316;53.840;10.762;2022-07-29T12:32:41;24.90;96.90
8557;DHT22;4316;53.840;10.762;2022-07-29T12:35:18;25.00;96.80
8557;DHT22;4316;53.840;10.762;2022-07-29T12:37:47;25.00;96.90
8557;DHT22;4316;53.840;10.762;2022-07-29T12:40:16;24.70;97.10
8557;DHT22;4316;53.840;10.762;2022-07-29T12:43:09;24.80;97.20
8557;DHT22;4316;53.840;10.762;2022-07-29T12:45:38;24.80;97.20
8557;DHT22;4316;53.840;10.762;2022-07-29T12:48:06;24.60;97.70
8557;DHT22;4316;53.840;10.762;2022-07-29T12:50:34;24.80;97.70
8557;DHT22;4316;53.840;10.762;2022-07-29T12:53:11;24.70;98.00
8557;DHT22;4316;53.840;10.762;2022-07-29T12:55:44;24.90;98.10
8557;DHT22;4316;53.840;10.762;2022-07-29T13:03:25;25.20;98.00
8557;DHT22;4316;53.840;10.762;2022-07-29T13:05:51;25.00;98.10
8557;DHT22;4316;53.840;10.762;2022-07-29T13:08:17;24.80;98.50
8557;DHT22;4316;53.840;10.762;2022-07-29T13:10:46;24.60;98.90
8557;DHT22;4316;53.840;10.762;2022-07-29T13:13:13;24.30;99.10
8557;DHT22;4316;53.840;10.762;2022-07-29T13:15:44;24.20;99.50
8557;DHT22;4316;53.840;10.762;2022-07-29T13:18:33;24.30;99.40
8557;DHT22;4316;53.840;10.762;2022-07-29T13:21:13;24.10;99.60
8557;DHT22;4316;53.840;10.762;2022-07-29T13:23:39;24.00;99.80
8557;DHT22;4316;53.840;10.762;2022-07-29T13:26:09;24.20;99.90
8557;DHT22;4316;53.840;10.762;2022-07-29T13:28:35;24.40;99.80
8557;DHT22;4316;53.840;10.762;2022-07-29T13:31:01;24.50;99.50
8557;DHT22;4316;53.840;10.762;2022-07-29T13:33:27;24.60;99.40
8557;DHT22;4316;53.840;10.762;2022-07-29T13:35:52;24.50;99.40
8557;DHT22;4316;53.840;10.762;2022-07-29T13:38:18;24.40;99.60
8557;DHT22;4316;53.840;10.762;2022-07-29T13:40:43;24.30;99.80
8557;DHT22;4316;53.840;10.762;2022-07-29T13:43:10;24.30;99.90
8557;DHT22;4316;53.840;10.762;2022-07-29T13:45:35;24.30;99.90
8557;DHT22;4316;53.840;10.762;2022-07-29T13:48:01;24.00;99.90
8557;DHT22;4316;53.840;10.762;2022-07-29T13:50:27;23.60;99.90
8557;DHT22;4316;53.840;10.762;2022-07-29T13:52:53;23.80;99.90
8557;DHT22;4316;53.840;10.762;2022-07-29T13:55:19;24.00;99.90
8557;DHT22;4316;53.840;10.762;2022-07-29T13:57:45;24.00;99.90
8557;DHT22;4316;53.840;10.762;2022-07-29T14:00:11;24.00;99.90
8557;DHT22;4316;53.840;10.762;2022-07-29T14:02:37;24.00;99.90
8557;DHT22;4316;53.840;10.762;2022-07-29T14:05:07;24.10;99.90
8557;DHT22;4316;53.840;10.762;2022-07-29T14:07:33;24.20;99.90
8557;DHT22;4316;53.840;10.762;2022-07-29T14:09:59;24.10;99.90
8557;DHT22;4316;53.840;10.762;2022-07-29T14:12:24;24.10;99.90
8557;DHT22;4316;53.840;10.762;2022-07-29T14:14:50;24.00;99.90
8557;DHT22;4316;53.840;10.762;2022-07-29T14:17:15;24.00;99.90
8557;DHT22;4316;53.840;10.762;2022-07-29T14:19:41;24.10;99.90
8557;DHT22;4316;53.840;10.762;2022-07-29T14:22:08;23.90;99.90
8557;DHT22;4316;53.840;10.762;2022-07-29T14:24:35;23.80;99.90
8557;DHT22;4316;53.840;10.762;2022-07-29T14:27:00;23.50;99.90
8557;DHT22;4316;53.840;10.762;2022-07-29T14:29:26;23.60;99.90
8557;DHT22;4316;53.840;10.762;2022-07-29T14:31:51;23.40;99.90
8557;DHT22;4316;53.840;10.762;2022-07-29T14:34:17;23.40;99.90
8557;DHT22;4316;53.840;10.762;2022-07-29T14:36:43;23.60;99.90
8557;DHT22;4316;53.840;10.762;2022-07-29T14:39:08;23.60;99.90
8557;DHT22;4316;53.840;10.762;2022-07-29T14:41:34;23.60;99.90
8557;DHT22;4316;53.840;10.762;2022-07-29T14:43:59;23.60;99.90
8557;DHT22;4316;53.840;10.762;2022-07-29T14:46:26;23.30;99.90
8557;DHT22;4316;53.840;10.762;2022-07-29T14:48:52;23.30;99.90
8557;DHT22;4316;53.840;10.762;2022-07-29T14:51:17;23.30;99.90
8557;DHT22;4316;53.840;10.762;2022-07-29T14:53:43;23.40;99.90
8557;DHT22;4316;53.840;10.762;2022-07-29T14:56:09;23.50;99.90
8557;DHT22;4316;53.840;10.762;2022-07-29T14:58:34;23.40;99.90
8557;DHT22;4316;53.840;10.762;2022-07-29T15:01:00;23.50;99.90
8557;DHT22;4316;53.840;10.762;2022-07-29T15:03:26;23.80;99.90
8557;DHT22;4316;53.840;10.762;2022-07-29T15:05:53;23.80;99.90
8557;DHT22;4316;53.840;10.762;2022-07-29T15:08:19;23.80;99.90
8557;DHT22;4316;53.840;10.762;2022-07-29T15:10:44;23.80;99.90
8557;DHT22;4316;53.840;10.762;2022-07-29T15:13:10;23.90;99.90
8557;DHT22;4316;53.840;10.762;2022-07-29T15:15:36;23.80;99.90
8557;DHT22;4316;53.840;10.762;2022-07-29T15:18:01;23.80;99.90
8557;DHT22;4316;53.840;10.762;2022-07-29T15:20:27;23.80;99.90
8557;DHT22;4316;53.840;10.762;2022-07-29T15:22:54;23.90;99.90
8557;DHT22;4316;53.840;10.762;2022-07-29T15:25:21;24.00;99.90
8557;DHT22;4316;53.840;10.762;2022-07-29T15:27:47;23.90;99.90
8557;DHT22;4316;53.840;10.762;2022-07-29T15:30:13;23.90;99.90
8557;DHT22;4316;53.840;10.762;2022-07-29T15:32:40;23.80;99.90
8557;DHT22;4316;53.840;10.762;2022-07-29T15:35:06;23.80;99.90
8557;DHT22;4316;53.840;10.762;2022-07-29T15:37:32;23.80;99.90
8557;DHT22;4316;53.840;10.762;2022-07-29T15:40:00;23.90;99.90
8557;DHT22;4316;53.840;10.762;2022-07-29T15:42:25;24.00;99.90
8557;DHT22;4316;53.840;10.762;2022-07-29T15:44:51;24.00;99.90
8557;DHT22;4316;53.840;10.762;2022-07-29T15:47:16;23.90;99.90
8557;DHT22;4316;53.840;10.762;2022-07-29T15:49:42;23.60;99.90
8557;DHT22;4316;53.840;10.762;2022-07-29T15:52:09;23.80;99.90
8557;DHT22;4316;53.840;10.762;2022-07-29T15:54:36;24.00;99.90
8557;DHT22;4316;53.840;10.762;2022-07-29T15:57:04;24.20;99.90
8557;DHT22;4316;53.840;10.762;2022-07-29T15:59:30;23.90;99.90
8557;DHT22;4316;53.840;10.762;2022-07-29T16:01:56;24.00;99.90
8557;DHT22;4316;53.840;10.762;2022-07-29T16:04:21;23.90;99.90
8557;DHT22;4316;53.840;10.762;2022-07-29T16:06:47;23.90;99.90
8557;DHT22;4316;53.840;10.762;2022-07-29T16:09:14;24.00;99.90
8557;DHT22;4316;53.840;10.762;2022-07-29T16:11:40;24.10;99.90
8557;DHT22;4316;53.840;10.762;2022-07-29T16:14:06;24.10;99.90
8557;DHT22;4316;53.840;10.762;2022-07-29T16:16:32;24.00;99.90
8557;DHT22;4316;53.840;10.762;2022-07-29T16:18:58;23.80;99.90
8557;DHT22;4316;53.840;10.762;2022-07-29T16:21:24;23.80;99.90